createdAt,value
2018-09-13T00:00:43.200Z,11.13
2018-09-13T00:03:19.614Z,9.90
2018-09-13T00:05:56.358Z,9.50
2018-09-13T00:08:34.359Z,8.63
2018-09-13T00:11:12.889Z,7.93
2018-09-13T00:13:49.958Z,7.80
2018-09-13T00:16:28.225Z,10.17
2018-09-13T00:19:04.478Z,9.57
2018-09-13T00:21:41.745Z,11.40
2018-09-13T00:24:17.369Z,8.03
2018-09-13T00:26:54.316Z,8.87
2018-09-13T00:29:30.880Z,8.07
2018-09-13T00:32:08.069Z,11.43
2018-09-13T00:34:43.825Z,13.00
2018-09-13T00:37:19.934Z,10.17
2018-09-13T00:39:56.861Z,9.20
2018-09-13T00:42:33.610Z,13.27
2018-09-13T00:45:10.675Z,10.83
2018-09-13T00:47:47.237Z,10.07
2018-09-13T00:50:24.433Z,8.73
2018-09-13T00:53:00.888Z,12.87
2018-09-13T00:55:37.590Z,11.23
2018-09-13T00:58:15.120Z,10.37
2018-09-13T01:00:51.729Z,10.33
2018-09-13T01:03:29.679Z,11.43
2018-09-13T01:06:07.527Z,9.00
2018-09-13T01:08:43.330Z,8.77
2018-09-13T01:11:19.676Z,10.93
2018-09-13T01:13:57.617Z,11.07
2018-09-13T01:16:34.152Z,9.43
2018-09-13T01:19:10.040Z,11.73
2018-09-13T01:21:47.172Z,10.60
2018-09-13T01:24:25.318Z,10.47
2018-09-13T01:27:02.791Z,8.37
2018-09-13T01:29:39.382Z,9.93
2018-09-13T01:32:15.630Z,10.40
2018-09-13T01:34:53.348Z,11.07
2018-09-13T01:37:30.037Z,14.30
2018-09-13T01:40:07.216Z,9.60
2018-09-13T01:42:44.502Z,9.90
2018-09-13T01:45:21.105Z,11.40
2018-09-13T01:47:58.258Z,10.73
2018-09-13T01:50:34.335Z,10.30
2018-09-13T01:53:10.719Z,7.70
2018-09-13T01:55:46.944Z,11.73
2018-09-13T01:58:23.416Z,9.63
2018-09-13T02:01:01.250Z,12.17
2018-09-13T02:03:37.782Z,12.30
2018-09-13T02:06:13.777Z,11.00
2018-09-13T02:08:50.438Z,11.30
2018-09-13T02:11:26.603Z,11.90
2018-09-13T02:14:02.632Z,11.87
2018-09-13T02:16:41.251Z,9.07
2018-09-13T02:19:18.389Z,15.60
2018-09-13T02:21:54.464Z,13.70
2018-09-13T02:24:30.664Z,14.63
2018-09-13T02:27:07.642Z,13.83
2018-09-13T02:29:43.904Z,12.23
2018-09-13T02:32:21.948Z,12.77
2018-09-13T02:34:58.228Z,11.70
2018-09-13T02:37:33.990Z,15.40
2018-09-13T02:40:09.676Z,17.00
2018-09-13T02:42:46.900Z,14.73
2018-09-13T02:45:22.877Z,14.77
2018-09-13T02:47:59.079Z,13.00
2018-09-13T02:50:35.349Z,13.17
2018-09-13T02:53:12.424Z,12.27
2018-09-13T02:55:49.225Z,11.10
2018-09-13T02:58:26.026Z,14.93
2018-09-13T03:01:02.910Z,16.67
2018-09-13T03:03:39.080Z,12.30
2018-09-13T03:06:16.981Z,12.50
2018-09-13T03:08:52.996Z,14.93
2018-09-13T03:11:29.692Z,11.47
2018-09-13T03:14:08.168Z,16.87
2018-09-13T03:16:44.636Z,13.60
2018-09-13T03:19:21.195Z,14.67
2018-09-13T03:21:57.277Z,14.97
2018-09-13T03:24:33.386Z,13.90
2018-09-13T03:27:09.493Z,12.10
2018-09-13T03:29:45.820Z,11.80
2018-09-13T03:32:22.245Z,12.80
2018-09-13T03:34:59.423Z,12.07
2018-09-13T03:37:36.952Z,12.77
2018-09-13T03:40:13.143Z,14.23
2018-09-13T03:42:49.920Z,11.13
2018-09-13T03:45:26.724Z,10.67
2018-09-13T03:48:03.082Z,14.53
2018-09-13T03:50:39.550Z,11.07
2018-09-13T03:53:15.605Z,13.57
2018-09-13T03:55:51.856Z,13.57
2018-09-13T03:58:28.821Z,13.20
2018-09-13T04:01:05.479Z,14.03
2018-09-13T04:03:42.582Z,11.43
2018-09-13T04:06:18.925Z,12.37
2018-09-13T04:08:55.887Z,12.60
2018-09-13T04:11:32.908Z,13.27
2018-09-13T04:14:08.935Z,12.00
2018-09-13T04:16:44.916Z,12.13
2018-09-13T04:19:20.955Z,15.47
2018-09-13T04:21:57.073Z,11.57
2018-09-13T04:24:34.145Z,10.50
2018-09-13T04:27:10.686Z,9.67
2018-09-13T04:29:46.129Z,9.37
2018-09-13T04:32:23.394Z,8.33
2018-09-13T04:35:01.218Z,13.20
2018-09-13T04:37:37.586Z,10.43
2018-09-13T04:40:13.925Z,12.83
2018-09-13T04:42:49.848Z,8.63
2018-09-13T04:45:26.607Z,10.63
2018-09-13T04:48:03.786Z,11.10
2018-09-13T04:50:40.264Z,8.30
2018-09-13T04:53:17.919Z,10.70
2018-09-13T04:55:53.710Z,12.77
2018-09-13T04:58:30.624Z,13.80
2018-09-13T05:01:06.712Z,11.73
2018-09-13T05:03:43.547Z,9.27
2018-09-13T05:06:20.463Z,8.77
2018-09-13T05:08:57.686Z,10.67
2018-09-13T05:11:34.795Z,7.90
2018-09-13T05:14:11.072Z,9.97
2018-09-13T05:16:47.879Z,8.57
2018-09-13T05:19:24.831Z,7.57
2018-09-13T05:22:01.269Z,10.33
2018-09-13T05:24:38.823Z,9.50
2018-09-13T05:27:15.115Z,12.50
2018-09-13T05:29:51.508Z,8.50
2018-09-13T05:32:28.410Z,10.33
2018-09-13T05:35:05.000Z,8.53
2018-09-13T05:37:41.915Z,9.90
2018-09-13T05:40:18.198Z,7.93
2018-09-13T05:42:55.281Z,7.30
2018-09-13T05:45:31.885Z,5.93
2018-09-13T05:48:07.602Z,8.83
2018-09-13T05:50:44.547Z,10.93
2018-09-13T05:53:21.466Z,11.73
2018-09-13T05:55:58.240Z,9.30
2018-09-13T05:58:34.394Z,10.07
2018-09-13T06:01:11.622Z,6.30
2018-09-13T06:03:48.937Z,14.10
2018-09-13T06:06:24.619Z,8.97
2018-09-13T06:09:01.266Z,7.90
2018-09-13T06:11:39.813Z,13.97
2018-09-13T06:14:16.904Z,10.63
2018-09-13T06:16:52.824Z,8.93
2018-09-13T06:19:33.575Z,9.10
2018-09-13T06:22:11.555Z,8.80
2018-09-13T06:24:49.113Z,10.27
2018-09-13T06:27:25.431Z,7.40
2018-09-13T06:30:02.389Z,9.77
2018-09-13T06:32:39.009Z,9.67
2018-09-13T06:35:17.656Z,10.17
2018-09-13T06:37:55.149Z,13.20
2018-09-13T06:40:31.904Z,10.33
2018-09-13T06:43:07.964Z,12.13
2018-09-13T06:45:44.844Z,10.40
2018-09-13T06:48:22.172Z,9.40
2018-09-13T06:50:57.960Z,11.10
2018-09-13T06:53:38.388Z,14.97
2018-09-13T06:56:14.626Z,13.17
2018-09-13T06:58:50.645Z,10.40
2018-09-13T07:01:27.119Z,8.80
2018-09-13T07:04:03.006Z,12.00
2018-09-13T07:06:39.520Z,11.70
2018-09-13T07:09:16.071Z,11.43
2018-09-13T07:11:52.821Z,15.40
2018-09-13T07:14:28.376Z,10.57
2018-09-13T07:17:05.263Z,13.77
2018-09-13T07:19:41.787Z,13.70
2018-09-13T07:22:18.074Z,10.60
2018-09-13T07:24:55.558Z,14.27
2018-09-13T07:27:31.767Z,11.47
2018-09-13T07:30:08.838Z,12.73
2018-09-13T07:32:47.152Z,11.47
2018-09-13T07:35:23.502Z,13.23
2018-09-13T07:38:00.798Z,16.90
2018-09-13T07:40:37.956Z,13.27
2018-09-13T07:43:14.605Z,16.23
2018-09-13T07:45:51.030Z,12.80
2018-09-13T07:48:27.373Z,11.40
2018-09-13T07:51:05.669Z,14.80
2018-09-13T07:53:41.665Z,14.43
2018-09-13T07:56:18.448Z,17.57
2018-09-13T07:58:54.768Z,20.53
2018-09-13T08:01:30.864Z,22.10
2018-09-13T08:04:07.189Z,19.37
2018-09-13T08:06:43.768Z,26.20
2018-09-13T08:09:19.914Z,16.67
2018-09-13T08:11:57.203Z,17.07
2018-09-13T08:14:33.726Z,17.63
2018-09-13T08:17:10.003Z,17.17
2018-09-13T08:19:46.907Z,18.10
2018-09-13T08:22:23.920Z,13.13
2018-09-13T08:25:00.525Z,13.53
2018-09-13T08:27:36.923Z,17.13
2018-09-13T08:30:13.900Z,17.77
2018-09-13T08:32:50.408Z,19.10
2018-09-13T08:35:27.220Z,17.00
2018-09-13T08:38:03.792Z,17.10
2018-09-13T08:40:40.600Z,21.13
2018-09-13T08:43:16.502Z,21.20
2018-09-13T08:45:52.411Z,19.50
2018-09-13T08:48:28.781Z,16.70
2018-09-13T08:51:04.802Z,22.30
2018-09-13T08:53:42.125Z,17.20
2018-09-13T08:56:19.377Z,17.70
2018-09-13T08:58:55.837Z,16.60
2018-09-13T09:01:32.520Z,18.87
2018-09-13T09:04:10.004Z,17.80
2018-09-13T09:06:46.204Z,21.80
2018-09-13T09:09:23.394Z,22.97
2018-09-13T09:11:59.749Z,22.47
2018-09-13T09:14:38.257Z,15.70
2018-09-13T09:17:14.596Z,16.37
2018-09-13T09:19:50.994Z,20.10
2018-09-13T09:22:27.291Z,13.63
2018-09-13T09:25:05.304Z,17.67
2018-09-13T09:27:41.288Z,14.97
2018-09-13T09:30:18.192Z,13.50
2018-09-13T09:32:54.752Z,14.03
2018-09-13T09:35:31.637Z,14.13
2018-09-13T09:38:07.604Z,12.77
2018-09-13T09:40:43.793Z,14.33
2018-09-13T09:43:20.701Z,14.73
2018-09-13T09:45:57.972Z,14.43
2018-09-13T09:48:34.047Z,11.70
2018-09-13T09:51:11.447Z,10.87
2018-09-13T09:53:48.198Z,13.80
2018-09-13T09:56:23.882Z,14.70
2018-09-13T09:59:00.556Z,9.67
2018-09-13T10:01:40.445Z,11.10
2018-09-13T10:04:16.237Z,11.00
2018-09-13T10:06:53.086Z,13.53
2018-09-13T10:09:29.791Z,13.87
2018-09-13T10:12:06.336Z,13.77
2018-09-13T10:14:42.562Z,12.57
2018-09-13T10:17:25.164Z,11.60
2018-09-13T10:20:07.005Z,13.77
2018-09-13T10:22:49.190Z,16.80
2018-09-13T10:25:31.595Z,15.20
2018-09-13T10:28:13.394Z,11.10
2018-09-13T10:30:54.489Z,14.70
2018-09-13T10:33:36.165Z,15.27
2018-09-13T10:36:27.277Z,12.20
2018-09-13T10:39:10.980Z,15.00
2018-09-13T10:41:52.085Z,16.10
2018-09-13T10:44:33.310Z,12.47
2018-09-13T10:47:15.064Z,14.53
2018-09-13T10:49:57.431Z,15.00
2018-09-13T10:52:36.090Z,12.47
2018-09-13T10:55:12.263Z,14.77
2018-09-13T10:57:49.243Z,13.93
2018-09-13T11:00:27.707Z,14.17
2018-09-13T11:03:04.127Z,17.57
2018-09-13T11:05:40.982Z,15.20
2018-09-13T11:08:17.473Z,13.47
2018-09-13T11:10:55.510Z,11.60
2018-09-13T11:13:42.022Z,12.83
2018-09-13T11:16:18.681Z,13.03
2018-09-13T11:18:55.146Z,16.90
2018-09-13T11:21:31.288Z,15.70
2018-09-13T11:24:08.791Z,12.80
2018-09-13T11:26:44.960Z,16.53
2018-09-13T11:29:22.138Z,12.63
2018-09-13T11:31:58.369Z,14.07
2018-09-13T11:34:34.991Z,17.67
2018-09-13T11:37:11.690Z,11.33
2018-09-13T11:39:47.970Z,14.77
2018-09-13T11:42:24.452Z,14.07
2018-09-13T11:45:01.395Z,11.80
2018-09-13T11:47:40.184Z,14.33
2018-09-13T11:50:17.670Z,13.73
2018-09-13T11:52:53.815Z,14.17
2018-09-13T11:55:30.259Z,14.27
2018-09-13T11:58:08.617Z,13.70
2018-09-13T12:00:45.489Z,14.90
2018-09-13T12:03:23.702Z,18.57
2018-09-13T12:05:59.454Z,15.10
2018-09-13T12:08:36.539Z,17.90
2018-09-13T12:11:15.506Z,17.47
2018-09-13T12:13:52.810Z,15.40
2018-09-13T12:16:30.459Z,15.50
2018-09-13T12:19:07.747Z,16.13
2018-09-13T12:21:44.013Z,15.83
2018-09-13T12:24:20.050Z,16.83
2018-09-13T12:26:57.963Z,16.60
2018-09-13T12:29:34.703Z,16.50
2018-09-13T12:32:10.338Z,17.10
2018-09-13T12:34:46.409Z,16.87
2018-09-13T12:37:23.173Z,21.83
2018-09-13T12:39:59.602Z,21.40
2018-09-13T12:42:36.147Z,19.80
2018-09-13T12:45:12.913Z,18.00
2018-09-13T12:47:49.397Z,17.07
2018-09-13T12:50:27.831Z,17.30
2018-09-13T12:53:05.403Z,17.33
2018-09-13T12:55:47.748Z,17.07
2018-09-13T12:58:25.794Z,19.10
2018-09-13T13:01:02.737Z,17.33
2018-09-13T13:03:39.570Z,18.53
2018-09-13T13:06:16.273Z,17.73
2018-09-13T13:08:52.781Z,21.27
2018-09-13T13:11:30.338Z,16.50
2018-09-13T13:14:06.782Z,20.70
2018-09-13T13:16:43.438Z,14.53
2018-09-13T13:19:20.980Z,18.07
2018-09-13T13:21:57.656Z,21.17
2018-09-13T13:24:33.740Z,17.60
2018-09-13T13:27:10.908Z,18.17
2018-09-13T13:29:47.358Z,17.80
2018-09-13T13:32:24.283Z,21.10
2018-09-13T13:35:00.533Z,22.50
2018-09-13T13:37:37.386Z,18.97
2018-09-13T13:40:14.261Z,20.70
2018-09-13T13:42:51.206Z,16.10
2018-09-13T13:45:28.918Z,14.60
2018-09-13T13:48:06.416Z,14.30
2018-09-13T13:50:42.894Z,19.27
2018-09-13T13:53:19.282Z,15.67
2018-09-13T13:55:56.127Z,15.93
2018-09-13T13:58:34.461Z,16.23
2018-09-13T14:01:13.113Z,16.83
2018-09-13T14:03:49.968Z,14.53
2018-09-13T14:06:27.054Z,18.83
2018-09-13T14:09:03.953Z,17.80
2018-09-13T14:11:40.875Z,20.23
2018-09-13T14:14:16.808Z,19.73
2018-09-13T14:16:52.902Z,20.87
2018-09-13T14:19:31.969Z,16.67
2018-09-13T14:22:10.116Z,16.77
2018-09-13T14:24:46.774Z,22.37
2018-09-13T14:27:25.958Z,16.67
2018-09-13T14:30:03.602Z,17.30
2018-09-13T14:32:40.111Z,17.83
2018-09-13T14:35:19.566Z,16.90
2018-09-13T14:37:55.668Z,16.90
2018-09-13T14:40:34.494Z,18.03
2018-09-13T14:43:13.116Z,17.43
2018-09-13T14:45:49.268Z,16.33
2018-09-13T14:48:26.020Z,19.83
2018-09-13T14:51:01.976Z,16.13
2018-09-13T14:53:38.711Z,14.97
2018-09-13T14:56:14.458Z,14.73
2018-09-13T14:58:52.404Z,13.13
2018-09-13T15:01:28.612Z,11.03
2018-09-13T15:04:05.056Z,11.77
2018-09-13T15:06:41.766Z,9.33
2018-09-13T15:09:18.680Z,12.33
2018-09-13T15:11:54.754Z,10.47
2018-09-13T15:14:30.754Z,12.10
2018-09-13T15:17:07.122Z,11.23
2018-09-13T15:19:43.383Z,10.10
2018-09-13T15:22:19.943Z,11.20
2018-09-13T15:24:55.538Z,11.23
2018-09-13T15:27:32.904Z,12.10
2018-09-13T15:30:09.868Z,12.73
2018-09-13T15:32:45.798Z,13.40
2018-09-13T15:35:23.025Z,11.27
2018-09-13T15:38:00.990Z,12.57
2018-09-13T15:40:38.109Z,12.17
2018-09-13T15:43:16.898Z,12.40
2018-09-13T15:45:55.244Z,11.73
2018-09-13T15:48:31.738Z,13.60
2018-09-13T15:51:09.557Z,11.07
2018-09-13T15:53:45.667Z,13.87
2018-09-13T15:56:21.678Z,11.27
2018-09-13T15:58:59.844Z,11.67
2018-09-13T16:01:36.521Z,11.73
2018-09-13T16:04:13.389Z,13.87
2018-09-13T16:06:50.545Z,12.10
2018-09-13T16:09:26.468Z,13.13
2018-09-13T16:12:02.689Z,13.67
2018-09-13T16:14:38.526Z,13.53
2018-09-13T16:17:14.869Z,13.33
2018-09-13T16:19:51.613Z,13.70
2018-09-13T16:22:28.061Z,12.33
2018-09-13T16:25:05.172Z,11.23
2018-09-13T16:27:41.176Z,13.50
2018-09-13T16:30:18.425Z,12.33
2018-09-13T16:32:55.513Z,14.60
2018-09-13T16:35:31.931Z,12.60
2018-09-13T16:38:13.608Z,13.97
2018-09-13T16:40:55.456Z,15.60
2018-09-13T16:43:37.828Z,13.37
2018-09-13T16:46:19.310Z,12.10
2018-09-13T16:48:55.883Z,15.83
2018-09-13T16:51:33.373Z,12.47
2018-09-13T16:54:09.948Z,11.23
2018-09-13T16:56:46.026Z,14.33
2018-09-13T16:59:23.325Z,14.60
2018-09-13T17:02:01.140Z,16.10
2018-09-13T17:04:39.974Z,15.50
2018-09-13T17:07:18.044Z,17.20
2018-09-13T17:09:53.843Z,21.07
2018-09-13T17:12:29.788Z,14.00
2018-09-13T17:15:08.056Z,19.23
2018-09-13T17:17:44.743Z,12.97
2018-09-13T17:20:21.298Z,15.70
2018-09-13T17:22:57.511Z,18.00
2018-09-13T17:25:33.732Z,18.27
2018-09-13T17:28:12.148Z,15.40
2018-09-13T17:30:49.652Z,15.80
2018-09-13T17:33:26.555Z,15.57
2018-09-13T17:36:02.516Z,19.03
2018-09-13T17:38:39.849Z,19.50
2018-09-13T17:41:16.232Z,13.73
2018-09-13T17:43:54.123Z,19.70
2018-09-13T17:46:30.861Z,13.47
2018-09-13T17:49:07.183Z,17.23
2018-09-13T17:51:43.937Z,22.93
2018-09-13T17:54:20.480Z,17.87
2018-09-13T17:56:56.696Z,14.87
2018-09-13T17:59:33.804Z,11.20
2018-09-13T18:02:10.680Z,13.87
2018-09-13T18:04:48.219Z,10.83
2018-09-13T18:07:24.741Z,8.10
2018-09-13T18:10:01.927Z,13.00
2018-09-13T18:12:38.965Z,8.30
2018-09-13T18:15:17.425Z,9.43
2018-09-13T18:17:53.233Z,8.33
2018-09-13T18:20:29.816Z,9.57
2018-09-13T18:23:06.725Z,11.90
2018-09-13T18:25:44.749Z,9.20
2018-09-13T18:28:20.705Z,7.83
2018-09-13T18:30:58.164Z,7.77
2018-09-13T18:33:34.943Z,7.33
2018-09-13T18:36:12.286Z,9.00
2018-09-13T18:38:49.335Z,7.90
2018-09-13T18:41:25.741Z,9.17
2018-09-13T18:44:03.658Z,12.07
2018-09-13T18:46:40.177Z,9.80
2018-09-13T18:49:17.746Z,8.80
2018-09-13T18:51:53.661Z,8.50
2018-09-13T18:54:30.392Z,10.77
2018-09-13T18:57:09.493Z,12.60
2018-09-13T18:59:45.751Z,8.50
2018-09-13T19:02:22.741Z,8.20
2018-09-13T19:05:01.517Z,10.13
2018-09-13T19:07:39.693Z,9.83
2018-09-13T19:10:15.756Z,11.60
2018-09-13T19:12:51.993Z,9.67
2018-09-13T19:15:30.289Z,10.40
2018-09-13T19:18:08.704Z,12.50
2018-09-13T19:20:45.547Z,10.27
2018-09-13T19:23:23.793Z,10.47
2018-09-13T19:26:00.759Z,10.37
2018-09-13T19:28:36.958Z,12.33
2018-09-13T19:31:16.704Z,10.53
2018-09-13T19:33:53.644Z,12.07
2018-09-13T19:36:30.072Z,13.70
2018-09-13T19:39:11.802Z,9.00
2018-09-13T19:41:48.971Z,12.50
2018-09-13T19:44:24.848Z,9.60
2018-09-13T19:47:01.657Z,12.07
2018-09-13T19:49:37.475Z,10.03
2018-09-13T19:52:13.965Z,13.40
2018-09-13T19:54:52.441Z,13.83
2018-09-13T19:57:29.090Z,11.33
2018-09-13T20:00:07.522Z,11.40
2018-09-13T20:02:44.363Z,12.60
2018-09-13T20:05:20.768Z,12.13
2018-09-13T20:07:56.941Z,13.13
2018-09-13T20:10:33.517Z,17.17
2018-09-13T20:13:10.739Z,12.20
2018-09-13T20:15:46.972Z,11.37
2018-09-13T20:18:23.044Z,11.83
2018-09-13T20:20:59.261Z,12.07
2018-09-13T20:23:35.937Z,12.67
2018-09-13T20:26:11.793Z,11.50
2018-09-13T20:28:47.934Z,11.53
2018-09-13T20:34:11.605Z,11.37
2018-09-13T20:36:47.842Z,12.73
2018-09-13T20:39:24.699Z,9.63
2018-09-13T20:42:01.234Z,10.90
2018-09-13T20:44:38.685Z,10.37
2018-09-13T20:47:17.536Z,11.67
2018-09-13T20:49:56.053Z,12.23
2018-09-13T20:52:34.357Z,12.27
2018-09-13T20:55:13.184Z,15.50
2018-09-13T20:57:48.839Z,11.37
2018-09-13T21:00:26.633Z,10.53
2018-09-13T21:03:04.184Z,9.33
2018-09-13T21:05:41.616Z,10.53
2018-09-13T21:08:18.287Z,11.93
2018-09-13T21:10:55.710Z,13.93
2018-09-13T21:13:32.665Z,12.13
2018-09-13T21:16:09.960Z,12.63
2018-09-13T21:18:46.972Z,10.87
2018-09-13T21:21:23.685Z,10.97
2018-09-13T21:24:00.502Z,11.97
2018-09-13T21:26:37.015Z,11.53
2018-09-13T21:29:13.293Z,10.87
2018-09-13T21:31:49.603Z,10.77
2018-09-13T21:34:26.783Z,10.27
2018-09-13T21:37:03.041Z,13.57
2018-09-13T21:39:39.789Z,12.03
2018-09-13T21:42:16.488Z,12.17
2018-09-13T21:44:53.352Z,11.80
2018-09-13T21:47:29.738Z,14.03
2018-09-13T21:50:06.625Z,12.13
2018-09-13T21:52:43.058Z,9.23
2018-09-13T21:55:19.153Z,13.67
2018-09-13T21:57:55.170Z,14.43
2018-09-13T22:00:31.201Z,11.47
2018-09-13T22:03:09.579Z,12.97
2018-09-13T22:05:47.209Z,15.57
2018-09-13T22:08:26.540Z,13.23
2018-09-13T22:11:03.395Z,11.63
2018-09-13T22:13:39.864Z,11.43
2018-09-13T22:16:15.843Z,13.20
2018-09-13T22:18:53.301Z,11.40
2018-09-13T22:21:30.395Z,14.20
2018-09-13T22:24:08.254Z,14.50
2018-09-13T22:26:44.592Z,11.77
2018-09-13T22:29:22.361Z,11.37
2018-09-13T22:31:59.256Z,11.97
2018-09-13T22:34:35.297Z,10.80
2018-09-13T22:37:11.726Z,11.13
2018-09-13T22:39:47.846Z,13.10
2018-09-13T22:42:24.841Z,14.87
2018-09-13T22:45:04.399Z,15.00
2018-09-13T22:47:40.736Z,13.80
2018-09-13T22:50:16.985Z,11.87
2018-09-13T22:52:52.948Z,15.97
2018-09-13T22:55:31.460Z,14.53
2018-09-13T22:58:07.149Z,13.70
2018-09-13T23:00:44.340Z,11.23
2018-09-13T23:03:22.255Z,12.57
2018-09-13T23:05:58.278Z,13.13
2018-09-13T23:08:36.010Z,14.00
2018-09-13T23:11:12.486Z,14.73
2018-09-13T23:13:48.544Z,16.13
2018-09-13T23:16:24.809Z,15.37
2018-09-13T23:19:02.098Z,16.80
2018-09-13T23:21:39.023Z,13.07
2018-09-13T23:24:14.999Z,14.47
2018-09-13T23:26:51.997Z,17.67
2018-09-13T23:29:29.189Z,12.20
2018-09-13T23:32:06.173Z,13.87
2018-09-13T23:34:41.942Z,16.97
2018-09-13T23:37:20.022Z,15.47
2018-09-13T23:39:56.643Z,14.37
2018-09-13T23:42:34.236Z,17.80
2018-09-13T23:45:11.989Z,23.33
2018-09-13T23:47:50.223Z,16.30
2018-09-13T23:50:27.077Z,19.07
2018-09-13T23:53:05.081Z,20.03
2018-09-13T23:55:41.401Z,22.20
2018-09-13T23:58:18.461Z,22.90
